Time;durP1;ratioP1;P1;durP2;ratioP2;P2;SDS_P1;SDS_P2;PMS_P1;PMS_P2;Temp;Humidity;BMP_temperature;BMP_pressure;BME280_temperature;BME280_humidity;BME280_pressure;Samples;Min_cycle;Max_cycle;Signal;HPM_P1;HPM_P2
2022/10/19 00:01:25;;;;;;;13.23;4.83;;;11.70;99.90;;;;;;5115917;28;20660;-67
2022/10/19 00:03:53;;;;;;;17.77;7.50;;;11.70;99.90;;;;;;5115872;28;20180;-66
2022/10/19 00:06:28;;;;;;;13.03;6.63;;;11.70;99.90;;;;;;5112007;28;20184;-66
2022/10/19 00:09:12;;;;;;;9.97;4.67;;;11.70;99.90;;;;;;5107716;28;20448;-67
2022/10/19 00:11:40;;;;;;;14.90;5.77;;;11.70;99.90;;;;;;5103165;28;20471;-67
2022/10/19 00:14:07;;;;;;;8.83;4.70;;;11.60;99.90;;;;;;5115609;28;20419;-66
2022/10/19 00:16:36;;;;;;;15.70;6.30;;;11.50;99.90;;;;;;5115821;28;20409;-67
2022/10/19 00:19:05;;;;;;;9.20;4.90;;;11.50;99.90;;;;;;5114621;28;20417;-67
2022/10/19 00:21:31;;;;;;;14.83;6.03;;;11.50;99.90;;;;;;5103551;28;20540;-67
2022/10/19 00:23:57;;;;;;;12.10;5.37;;;11.50;99.90;;;;;;5115357;28;20980;-66
2022/10/19 00:26:23;;;;;;;14.53;5.50;;;11.50;99.90;;;;;;5112362;28;20259;-66
2022/10/19 00:28:49;;;;;;;13.23;6.70;;;11.50;99.90;;;;;;5109974;28;20208;-66
2022/10/19 00:31:16;;;;;;;19.10;7.20;;;11.50;99.90;;;;;;5115660;28;20176;-65
2022/10/19 00:33:45;;;;;;;23.10;7.20;;;11.50;99.90;;;;;;5115021;28;20221;-66
2022/10/19 00:36:19;;;;;;;17.50;7.20;;;11.60;99.90;;;;;;5115561;28;20931;-65
2022/10/19 00:38:45;;;;;;;13.27;6.47;;;11.50;99.90;;;;;;5115136;28;20413;-65
2022/10/19 00:41:10;;;;;;;19.50;8.17;;;11.60;99.90;;;;;;5115090;28;20410;-65
2022/10/19 00:44:00;;;;;;;15.50;7.63;;;11.50;99.90;;;;;;5114541;28;20348;-65
2022/10/19 00:46:28;;;;;;;25.20;7.80;;;11.50;99.90;;;;;;5115342;28;20172;-65
2022/10/19 00:49:02;;;;;;;11.60;7.13;;;11.50;99.90;;;;;;5115431;28;20426;-65
2022/10/19 00:51:30;;;;;;;12.87;6.43;;;11.50;99.90;;;;;;5114800;28;20441;-65
2022/10/19 00:53:56;;;;;;;27.87;6.87;;;11.40;99.90;;;;;;5114376;27;20482;-66
2022/10/19 00:56:22;;;;;;;20.43;7.50;;;11.40;99.90;;;;;;5115020;28;20959;-66
2022/10/19 00:58:48;;;;;;;45.13;7.80;;;11.40;99.90;;;;;;5114635;27;20421;-65
2022/10/19 01:01:17;;;;;;;10.97;6.50;;;11.30;99.90;;;;;;5114392;28;20762;-65
2022/10/19 01:03:43;;;;;;;21.77;8.53;;;11.30;99.90;;;;;;5107867;28;20179;-65
2022/10/19 01:06:11;;;;;;;17.13;8.27;;;11.30;99.90;;;;;;5114706;28;20779;-66
2022/10/19 01:08:36;;;;;;;19.50;8.10;;;11.30;99.90;;;;;;5114700;28;20409;-65
2022/10/19 01:11:35;;;;;;;20.70;6.70;;;11.30;99.90;;;;;;5114884;28;20417;-65
2022/10/19 01:14:13;;;;;;;15.50;7.60;;;11.30;99.90;;;;;;5114415;28;20172;-66
2022/10/19 01:16:59;;;;;;;15.03;7.00;;;11.30;99.90;;;;;;5114750;27;20410;-65
2022/10/19 01:19:34;;;;;;;13.37;6.87;;;11.20;99.90;;;;;;5113310;28;20754;-65
2022/10/19 01:22:18;;;;;;;17.57;7.00;;;11.20;99.90;;;;;;5113999;28;20460;-66
2022/10/19 01:25:19;;;;;;;16.83;7.30;;;11.20;99.90;;;;;;5114158;28;20500;-66
2022/10/19 01:28:07;;;;;;;18.83;6.47;;;11.10;99.90;;;;;;5114402;28;20437;-66
2022/10/19 01:30:56;;;;;;;13.10;5.70;;;11.10;99.90;;;;;;5113947;28;20909;-66
2022/10/19 01:33:28;;;;;;;19.13;6.60;;;11.00;99.90;;;;;;5113801;28;20905;-66
2022/10/19 01:36:29;;;;;;;14.23;6.20;;;11.00;99.90;;;;;;5114543;28;20414;-66
2022/10/19 01:39:07;;;;;;;11.17;5.93;;;11.10;99.90;;;;;;5113868;28;20425;-66
2022/10/19 01:41:40;;;;;;;11.17;4.97;;;11.10;99.90;;;;;;5113875;28;21030;-66
2022/10/19 01:44:30;;;;;;;11.33;5.33;;;11.10;99.90;;;;;;5113993;28;20412;-66
2022/10/19 01:47:05;;;;;;;17.93;6.27;;;11.10;99.90;;;;;;5114221;28;20409;-66
2022/10/19 01:49:42;;;;;;;12.73;6.17;;;11.00;99.90;;;;;;5114115;28;20792;-66
2022/10/19 01:52:11;;;;;;;10.47;5.33;;;11.10;99.90;;;;;;5113798;28;20860;-66
2022/10/19 01:54:41;;;;;;;10.47;5.20;;;11.10;99.90;;;;;;5113925;28;20417;-67
2022/10/19 01:57:10;;;;;;;9.97;4.73;;;11.20;99.90;;;;;;5114065;28;20920;-67
2022/10/19 01:59:37;;;;;;;9.13;6.13;;;11.30;99.90;;;;;;5113256;28;20416;-67
2022/10/19 02:02:08;;;;;;;10.47;5.83;;;11.40;99.90;;;;;;5109815;28;20458;-66
2022/10/19 02:04:36;;;;;;;8.50;4.73;;;11.50;99.90;;;;;;5110830;28;20466;-67
2022/10/19 02:07:03;;;;;;;11.23;4.70;;;11.60;99.90;;;;;;5113006;28;20470;-67
2022/10/19 02:09:29;;;;;;;15.83;6.93;;;11.70;99.90;;;;;;5113295;28;20416;-67
2022/10/19 02:11:59;;;;;;;16.67;6.80;;;11.70;99.90;;;;;;5113615;28;20440;-67
2022/10/19 02:14:31;;;;;;;25.43;6.73;;;11.70;99.90;;;;;;5113083;28;20822;-67
2022/10/19 02:17:04;;;;;;;14.90;6.97;;;11.80;99.90;;;;;;5113589;28;20422;-66
2022/10/19 02:19:29;;;;;;;10.47;5.90;;;12.00;99.90;;;;;;5112326;28;20504;-67
2022/10/19 02:21:56;;;;;;;12.80;7.47;;;11.90;99.90;;;;;;5113082;28;20544;-67
2022/10/19 02:24:22;;;;;;;8.87;5.47;;;11.90;99.90;;;;;;5112907;28;20190;-67
2022/10/19 02:26:49;;;;;;;14.63;6.37;;;12.00;99.90;;;;;;5106517;28;20894;-67
2022/10/19 02:29:15;;;;;;;17.77;7.10;;;12.00;99.90;;;;;;5112915;28;20251;-66
2022/10/19 02:31:41;;;;;;;19.13;8.40;;;12.10;99.90;;;;;;5113138;28;20421;-66
2022/10/19 02:34:07;;;;;;;13.67;7.20;;;12.10;99.90;;;;;;5113897;28;20417;-66
2022/10/19 02:36:33;;;;;;;22.10;6.90;;;12.20;99.90;;;;;;5113538;28;20474;-67
2022/10/19 02:38:59;;;;;;;20.43;8.30;;;12.20;99.90;;;;;;5113379;28;20440;-66
2022/10/19 02:42:02;;;;;;;15.70;6.87;;;12.20;99.90;;;;;;5114124;28;20957;-67
2022/10/19 02:44:42;;;;;;;22.20;7.03;;;12.20;99.90;;;;;;5111269;28;20197;-67
2022/10/19 02:47:15;;;;;;;18.17;7.63;;;12.20;99.90;;;;;;5100952;28;20414;-64
2022/10/19 02:49:42;;;;;;;16.00;7.43;;;12.30;99.90;;;;;;5113219;28;20766;-65
2022/10/19 02:52:10;;;;;;;20.13;7.20;;;12.30;99.90;;;;;;5112494;28;20462;-65
2022/10/19 02:54:37;;;;;;;20.80;6.90;;;12.30;99.90;;;;;;5112627;28;20913;-65
2022/10/19 02:57:14;;;;;;;13.90;6.93;;;12.30;99.90;;;;;;5113471;28;20421;-66
2022/10/19 02:59:39;;;;;;;29.27;8.00;;;12.40;99.90;;;;;;5112176;28;20474;-66
2022/10/19 03:02:05;;;;;;;16.57;8.23;;;12.40;99.90;;;;;;5112388;28;20497;-66
2022/10/19 03:04:30;;;;;;;22.50;8.40;;;12.40;99.90;;;;;;5112708;28;20551;-66
2022/10/19 03:06:56;;;;;;;16.43;6.70;;;12.40;99.90;;;;;;5112910;28;20187;-66
2022/10/19 03:09:21;;;;;;;14.67;6.57;;;12.40;99.90;;;;;;5111103;28;20261;-66
2022/10/19 03:11:47;;;;;;;10.70;6.03;;;12.40;99.90;;;;;;5112470;28;20187;-66
2022/10/19 03:14:13;;;;;;;16.17;6.50;;;12.40;99.90;;;;;;5111706;28;20195;-66
2022/10/19 03:16:38;;;;;;;19.20;4.90;;;12.40;99.90;;;;;;5112517;28;20618;-66
2022/10/19 03:19:04;;;;;;;10.70;4.40;;;12.40;99.90;;;;;;5111352;28;20274;-66
2022/10/19 03:21:29;;;;;;;18.53;6.73;;;12.40;99.90;;;;;;5112442;28;20586;-66
2022/10/19 03:23:55;;;;;;;18.17;5.53;;;12.40;99.90;;;;;;5112035;28;20631;-66
2022/10/19 03:26:20;;;;;;;9.00;4.50;;;12.50;99.90;;;;;;5112638;28;20187;-66
2022/10/19 03:28:46;;;;;;;24.23;7.20;;;12.50;99.90;;;;;;5112003;28;20180;-66
2022/10/19 03:31:12;;;;;;;16.30;6.27;;;12.50;99.90;;;;;;5112401;28;20201;-66
2022/10/19 03:33:37;;;;;;;15.17;5.03;;;12.60;99.90;;;;;;5111850;28;20182;-66
2022/10/19 03:36:27;;;;;;;9.50;5.10;;;12.60;99.90;;;;;;5112502;28;20206;-66
2022/10/19 03:38:54;;;;;;;23.77;6.67;;;12.60;99.90;;;;;;5111851;28;20187;-66
2022/10/19 03:41:25;;;;;;;12.43;5.77;;;12.60;99.90;;;;;;5111705;28;20426;-66
2022/10/19 03:43:51;;;;;;;17.50;5.93;;;12.60;99.90;;;;;;5111561;28;20413;-66
2022/10/19 03:46:17;;;;;;;38.80;5.40;;;12.60;99.90;;;;;;5112366;28;20410;-66
2022/10/19 03:48:43;;;;;;;16.87;6.00;;;12.70;99.90;;;;;;5112345;28;20381;-66
2022/10/19 03:51:15;;;;;;;26.00;8.40;;;12.70;99.90;;;;;;5112510;28;20416;-66
2022/10/19 03:53:41;;;;;;;23.90;7.13;;;12.70;99.90;;;;;;5111636;28;20409;-66
2022/10/19 03:56:15;;;;;;;26.60;8.27;;;12.90;99.90;;;;;;5111992;28;20969;-66
2022/10/19 03:58:42;;;;;;;16.50;5.03;;;12.80;99.90;;;;;;5111780;28;20421;-66
2022/10/19 04:01:14;;;;;;;21.30;6.03;;;12.80;99.90;;;;;;5112133;28;20448;-67
2022/10/19 04:03:39;;;;;;;21.67;8.00;;;12.80;99.90;;;;;;5111624;28;20441;-67
2022/10/19 04:06:08;;;;;;;40.70;7.63;;;12.80;99.90;;;;;;5111114;28;20480;-66
2022/10/19 04:08:35;;;;;;;36.97;9.53;;;12.80;99.90;;;;;;5111965;28;20200;-67
2022/10/19 04:11:06;;;;;;;21.87;7.07;;;12.80;99.90;;;;;;5112016;28;20417;-67
2022/10/19 04:13:32;;;;;;;18.97;7.57;;;12.90;99.90;;;;;;5111348;28;20433;-67
2022/10/19 04:15:58;;;;;;;14.23;5.10;;;12.90;99.90;;;;;;5111987;28;20865;-67
2022/10/19 04:18:24;;;;;;;29.47;9.87;;;12.90;99.90;;;;;;5110845;28;20552;-67
2022/10/19 04:21:02;;;;;;;21.57;6.93;;;12.90;99.90;;;;;;5112047;28;20187;-67
2022/10/19 04:23:32;;;;;;;11.40;4.10;;;12.90;99.90;;;;;;5111913;28;20252;-67
2022/10/19 04:26:03;;;;;;;28.83;5.80;;;13.00;99.90;;;;;;5112543;28;20820;-67
2022/10/19 04:28:29;;;;;;;11.20;5.33;;;13.00;99.90;;;;;;5106330;28;20812;-66
2022/10/19 04:30:55;;;;;;;10.30;5.17;;;13.00;99.90;;;;;;5117005;28;21087;-67
2022/10/19 04:33:20;;;;;;;18.57;5.60;;;13.00;99.90;;;;;;5117939;28;20187;-67
2022/10/19 04:35:46;;;;;;;14.53;6.57;;;13.00;99.90;;;;;;5121079;28;20183;-67
2022/10/19 04:38:12;;;;;;;31.50;8.67;;;13.00;99.90;;;;;;5118898;28;20640;-67
2022/10/19 04:40:37;;;;;;;15.87;4.50;;;13.00;99.90;;;;;;5119422;28;20215;-67
2022/10/19 04:43:03;;;;;;;23.20;5.43;;;13.00;99.90;;;;;;5138828;28;20746;-66
2022/10/19 04:45:29;;;;;;;24.73;7.50;;;13.00;99.90;;;;;;5139241;28;20192;-66
2022/10/19 04:47:55;;;;;;;26.40;8.17;;;13.00;99.90;;;;;;5138713;28;20414;-67
2022/10/19 04:50:22;;;;;;;23.60;7.07;;;12.90;99.90;;;;;;5140378;28;20194;-67
2022/10/19 04:52:47;;;;;;;29.63;9.47;;;13.00;99.90;;;;;;5139499;28;20179;-66
2022/10/19 04:55:13;;;;;;;29.50;9.43;;;12.90;99.90;;;;;;5138352;28;20397;-66
2022/10/19 04:57:39;;;;;;;48.07;10.80;;;13.00;99.90;;;;;;5124358;28;20244;-67
2022/10/19 05:00:05;;;;;;;36.23;10.13;;;12.90;99.90;;;;;;5115234;28;20180;-67
2022/10/19 05:02:31;;;;;;;18.90;8.07;;;13.00;99.90;;;;;;5114954;28;20294;-67
2022/10/19 05:04:57;;;;;;;27.80;10.03;;;13.00;99.90;;;;;;5113606;28;20855;-67
2022/10/19 05:07:22;;;;;;;21.33;7.97;;;13.00;99.90;;;;;;5114553;28;20449;-67
2022/10/19 05:09:48;;;;;;;30.27;9.67;;;13.00;99.90;;;;;;5117685;27;20183;-67
2022/10/19 05:12:13;;;;;;;25.03;9.67;;;13.00;99.90;;;;;;5104697;27;20652;-67
2022/10/19 05:14:39;;;;;;;25.27;8.53;;;13.00;99.90;;;;;;5113853;28;20199;-67
2022/10/19 05:17:05;;;;;;;38.63;11.50;;;13.00;99.90;;;;;;5114741;28;20230;-67
2022/10/19 05:19:30;;;;;;;28.73;8.37;;;13.00;99.90;;;;;;5113931;28;20229;-67
2022/10/19 05:21:56;;;;;;;20.73;6.90;;;13.00;99.90;;;;;;5114400;28;20704;-66
2022/10/19 05:24:22;;;;;;;21.67;6.43;;;13.00;99.90;;;;;;5100686;28;20191;-66
2022/10/19 05:26:47;;;;;;;19.50;6.60;;;12.90;99.90;;;;;;5114382;28;20176;-66
2022/10/19 05:29:13;;;;;;;15.60;5.90;;;12.90;99.90;;;;;;5114085;28;20259;-67
2022/10/19 05:31:39;;;;;;;20.50;6.00;;;12.80;99.90;;;;;;5114066;28;20184;-67
2022/10/19 05:34:05;;;;;;;16.47;6.80;;;12.80;99.90;;;;;;5100746;28;20180;-67
2022/10/19 05:36:33;;;;;;;24.57;7.50;;;12.80;99.90;;;;;;5114288;27;20897;-66
2022/10/19 05:39:02;;;;;;;15.13;6.23;;;12.80;99.90;;;;;;5114303;28;20266;-67
2022/10/19 05:41:27;;;;;;;16.70;6.77;;;12.80;99.90;;;;;;5113324;28;20449;-67
2022/10/19 05:43:58;;;;;;;24.20;8.13;;;12.80;99.90;;;;;;5113713;27;20486;-66
2022/10/19 05:46:24;;;;;;;21.93;7.63;;;12.80;99.90;;;;;;5114129;28;20640;-66
2022/10/19 05:48:50;;;;;;;21.83;7.67;;;12.90;99.90;;;;;;5114293;28;20467;-66
2022/10/19 05:51:19;;;;;;;25.93;7.47;;;12.90;99.90;;;;;;5114132;27;20429;-66
2022/10/19 05:53:45;;;;;;;25.60;8.40;;;12.90;99.90;;;;;;5112973;28;20184;-66
2022/10/19 05:56:17;;;;;;;15.10;6.87;;;12.90;99.90;;;;;;5094906;28;20775;-66
2022/10/19 05:58:43;;;;;;;18.37;7.03;;;12.90;99.90;;;;;;5101158;28;20263;-66
2022/10/19 06:01:09;;;;;;;17.30;6.37;;;13.00;99.90;;;;;;5109488;28;20525;-66
2022/10/19 06:03:35;;;;;;;25.47;7.70;;;13.00;99.90;;;;;;5106346;28;20631;-66
2022/10/19 06:06:05;;;;;;;22.93;8.10;;;13.00;99.90;;;;;;5113099;28;20410;-66
2022/10/19 06:08:31;;;;;;;28.00;7.70;;;13.00;99.90;;;;;;5113206;28;20425;-66
2022/10/19 06:11:04;;;;;;;30.23;7.93;;;13.00;99.90;;;;;;5112703;28;20773;-66
2022/10/19 06:13:30;;;;;;;22.03;8.80;;;13.10;99.90;;;;;;5112672;28;20187;-66
2022/10/19 06:15:55;;;;;;;26.97;8.77;;;13.10;99.90;;;;;;5120733;27;20916;-67
2022/10/19 06:18:24;;;;;;;21.37;7.80;;;13.10;99.90;;;;;;5111856;28;20198;-66
2022/10/19 06:20:50;;;;;;;15.03;7.00;;;13.20;99.90;;;;;;5112878;28;20234;-66
2022/10/19 06:23:16;;;;;;;19.23;7.23;;;13.10;99.90;;;;;;5112734;28;20469;-66
2022/10/19 06:25:41;;;;;;;16.10;6.40;;;13.20;99.90;;;;;;5102259;28;20421;-66
2022/10/19 06:28:07;;;;;;;26.60;7.80;;;13.20;99.90;;;;;;5111643;28;20192;-68
2022/10/19 06:30:33;;;;;;;24.77;7.57;;;13.20;99.90;;;;;;5111800;28;20343;-67
2022/10/19 06:32:58;;;;;;;18.10;8.07;;;13.20;99.90;;;;;;5114695;27;20191;-66
2022/10/19 06:35:24;;;;;;;23.43;8.20;;;13.20;99.90;;;;;;5115216;27;20225;-67
2022/10/19 06:37:50;;;;;;;13.33;6.00;;;13.20;99.90;;;;;;5112677;28;20191;-67
2022/10/19 06:40:15;;;;;;;11.67;5.77;;;13.20;99.90;;;;;;5112221;28;20207;-67
2022/10/19 06:42:41;;;;;;;23.73;6.97;;;13.20;99.90;;;;;;5112212;28;20211;-67
2022/10/19 06:45:08;;;;;;;12.70;6.17;;;13.10;99.90;;;;;;5112366;28;20179;-67
2022/10/19 06:47:35;;;;;;;19.80;6.93;;;13.20;99.90;;;;;;5100657;28;20188;-67
2022/10/19 06:50:02;;;;;;;17.20;6.60;;;13.20;99.90;;;;;;5109754;28;20445;-68
2022/10/19 06:52:28;;;;;;;16.97;7.23;;;13.20;99.90;;;;;;5111567;28;20429;-68
2022/10/19 06:54:53;;;;;;;15.73;6.00;;;13.20;99.90;;;;;;5111956;28;20436;-68
2022/10/19 06:57:19;;;;;;;12.07;5.23;;;13.20;99.90;;;;;;5112164;28;20574;-68
2022/10/19 06:59:44;;;;;;;20.07;7.43;;;13.10;99.90;;;;;;5111957;28;20262;-68
2022/10/19 07:02:11;;;;;;;16.90;6.77;;;13.10;99.90;;;;;;5107352;28;20212;-68
2022/10/19 07:04:37;;;;;;;13.87;5.53;;;13.20;99.90;;;;;;5109747;28;20199;-68
2022/10/19 07:07:02;;;;;;;19.60;5.67;;;13.20;99.90;;;;;;5112100;28;20491;-68
2022/10/19 07:09:28;;;;;;;12.90;6.00;;;13.20;99.90;;;;;;5111337;28;20184;-67
2022/10/19 07:11:54;;;;;;;20.20;5.57;;;13.20;99.90;;;;;;5101008;28;20185;-68
2022/10/19 07:14:19;;;;;;;26.50;7.83;;;13.20;99.90;;;;;;5109034;28;20195;-68
2022/10/19 07:16:45;;;;;;;13.53;5.33;;;13.30;99.90;;;;;;5111635;28;20182;-68
2022/10/19 07:19:12;;;;;;;20.87;7.53;;;13.20;99.90;;;;;;5110144;28;20180;-68
2022/10/19 07:21:40;;;;;;;14.03;6.53;;;13.20;99.90;;;;;;5111641;28;20208;-68
2022/10/19 07:24:07;;;;;;;15.17;5.43;;;13.20;99.90;;;;;;5111386;28;20420;-68
2022/10/19 07:26:32;;;;;;;17.57;6.07;;;13.30;99.90;;;;;;5111364;28;20467;-68
2022/10/19 07:28:58;;;;;;;15.10;6.57;;;13.20;99.90;;;;;;5111292;28;20827;-68
2022/10/19 07:31:26;;;;;;;14.73;5.87;;;13.20;99.90;;;;;;5112031;28;20184;-68
2022/10/19 07:33:56;;;;;;;17.50;4.83;;;13.30;99.90;;;;;;5111928;28;20175;-68
2022/10/19 07:36:22;;;;;;;18.07;6.77;;;13.30;99.90;;;;;;5111679;28;20894;-67
2022/10/19 07:38:48;;;;;;;8.40;4.60;;;13.30;99.90;;;;;;5111796;28;20415;-68
2022/10/19 07:41:17;;;;;;;14.23;5.63;;;13.30;99.90;;;;;;5110802;28;20425;-68
2022/10/19 07:43:44;;;;;;;15.80;6.33;;;13.30;99.90;;;;;;5110975;28;20562;-68
2022/10/19 07:46:12;;;;;;;12.60;5.27;;;13.40;99.90;;;;;;5111902;28;20424;-68
2022/10/19 07:48:38;;;;;;;20.80;5.97;;;13.40;99.90;;;;;;5111278;28;20410;-68
2022/10/19 07:51:06;;;;;;;24.20;5.83;;;13.40;99.90;;;;;;5111855;28;20440;-68
2022/10/19 07:53:33;;;;;;;26.90;5.70;;;13.40;99.90;;;;;;5105466;28;20279;-68
2022/10/19 07:56:07;;;;;;;14.67;6.07;;;13.50;99.90;;;;;;5105504;28;20421;-68
2022/10/19 07:58:33;;;;;;;18.47;7.17;;;13.50;99.90;;;;;;5111072;28;20418;-68
2022/10/19 08:01:05;;;;;;;9.40;4.67;;;13.50;99.90;;;;;;5111820;28;20504;-67
2022/10/19 08:03:32;;;;;;;16.20;6.80;;;13.60;99.90;;;;;;5111441;28;20468;-68
2022/10/19 08:06:03;;;;;;;12.57;6.07;;;13.60;99.90;;;;;;5115548;28;20428;-68
2022/10/19 08:08:29;;;;;;;10.30;5.13;;;13.60;99.90;;;;;;5115205;28;21222;-68
2022/10/19 08:10:55;;;;;;;14.23;6.00;;;13.70;99.90;;;;;;5115439;28;20421;-67
2022/10/19 08:13:21;;;;;;;12.53;5.80;;;13.70;99.90;;;;;;5114638;28;20202;-67
2022/10/19 08:15:46;;;;;;;22.83;6.93;;;13.70;99.90;;;;;;5115703;28;20184;-67
2022/10/19 08:18:12;;;;;;;20.63;6.50;;;13.90;99.90;;;;;;5115044;28;20512;-67
2022/10/19 08:20:41;;;;;;;16.57;7.00;;;13.80;99.90;;;;;;5114567;28;20211;-67
2022/10/19 08:23:06;;;;;;;15.13;6.73;;;13.80;99.90;;;;;;5114768;28;20242;-67
2022/10/19 08:25:32;;;;;;;14.23;6.73;;;14.00;99.90;;;;;;5115020;28;20501;-67
2022/10/19 08:27:57;;;;;;;17.93;6.40;;;13.80;99.90;;;;;;5107038;28;20182;-67
2022/10/19 08:30:23;;;;;;;12.80;5.97;;;13.80;99.90;;;;;;5114773;28;20187;-67
2022/10/19 08:32:49;;;;;;;11.63;4.83;;;13.80;99.90;;;;;;5114727;28;20282;-66
2022/10/19 08:35:14;;;;;;;17.73;6.03;;;13.80;99.90;;;;;;5115160;28;20279;-66
2022/10/19 08:37:40;;;;;;;19.83;7.83;;;13.90;99.90;;;;;;5114689;28;20188;-66
2022/10/19 08:40:16;;;;;;;22.40;6.17;;;13.90;99.90;;;;;;5114308;28;20183;-66
2022/10/19 08:43:11;;;;;;;13.50;6.67;;;13.80;99.90;;;;;;5114860;28;20191;-66
2022/10/19 08:46:00;;;;;;;9.10;4.70;;;13.90;99.90;;;;;;5101771;28;20429;-66
2022/10/19 08:48:35;;;;;;;13.40;6.03;;;13.90;99.90;;;;;;5114942;28;20855;-66
2022/10/19 08:51:04;;;;;;;20.20;6.67;;;14.00;99.90;;;;;;5115189;28;20409;-66
2022/10/19 08:53:41;;;;;;;13.90;6.47;;;14.10;99.90;;;;;;5114088;28;20508;-67
2022/10/19 08:56:22;;;;;;;11.93;5.50;;;14.10;99.90;;;;;;5114576;28;20420;-67
2022/10/19 08:59:26;;;;;;;9.10;4.57;;;14.10;99.90;;;;;;5114269;28;20424;-65
2022/10/19 09:02:15;;;;;;;10.80;5.50;;;14.10;99.90;;;;;;5099505;28;20461;-66
2022/10/19 09:04:46;;;;;;;7.10;4.20;;;14.10;99.90;;;;;;5111154;28;20440;-66
2022/10/19 09:07:29;;;;;;;12.63;6.43;;;14.10;99.90;;;;;;5113435;28;21017;-66
2022/10/19 09:09:58;;;;;;;11.20;5.43;;;14.20;99.90;;;;;;5114307;28;20750;-66
2022/10/19 09:12:33;;;;;;;9.23;4.90;;;14.20;99.90;;;;;;5113983;28;20422;-66
2022/10/19 09:15:23;;;;;;;13.97;5.53;;;14.20;99.90;;;;;;5113887;28;20432;-66
2022/10/19 09:17:49;;;;;;;7.97;4.27;;;14.20;99.90;;;;;;5114073;28;20445;-66
2022/10/19 09:20:25;;;;;;;12.50;5.20;;;14.20;99.90;;;;;;5116881;27;20493;-66
2022/10/19 09:23:09;;;;;;;8.63;4.57;;;14.20;99.90;;;;;;5113996;27;20213;-66
2022/10/19 09:25:37;;;;;;;12.37;5.03;;;14.20;99.90;;;;;;5114067;28;20462;-66
2022/10/19 09:28:12;;;;;;;9.33;5.07;;;14.10;99.90;;;;;;5113553;27;20458;-66
2022/10/19 09:30:40;;;;;;;10.63;5.20;;;14.20;99.90;;;;;;5097277;27;20401;-66
2022/10/19 09:33:14;;;;;;;12.70;5.20;;;14.20;99.90;;;;;;5113167;28;20587;-66
2022/10/19 09:35:44;;;;;;;10.53;4.90;;;14.30;99.90;;;;;;5114062;28;20405;-67
2022/10/19 09:38:13;;;;;;;13.97;4.73;;;14.30;99.90;;;;;;5113650;28;20727;-67
2022/10/19 09:40:38;;;;;;;15.00;4.03;;;14.20;99.90;;;;;;5107029;28;20769;-67
2022/10/19 09:43:18;;;;;;;7.90;3.63;;;14.20;99.90;;;;;;5113489;28;20461;-67
2022/10/19 09:45:59;;;;;;;8.60;3.93;;;14.20;99.90;;;;;;5114229;28;20211;-67
2022/10/19 09:48:34;;;;;;;9.80;3.97;;;14.20;99.90;;;;;;5112783;28;20420;-65
2022/10/19 09:51:02;;;;;;;12.50;4.40;;;14.20;99.90;;;;;;5113890;28;20413;-65
2022/10/19 09:53:29;;;;;;;7.97;4.43;;;14.20;99.90;;;;;;5113139;28;20425;-66
2022/10/19 09:56:02;;;;;;;9.00;5.27;;;14.30;99.90;;;;;;5113155;28;20418;-66
2022/10/19 09:58:29;;;;;;;8.60;4.73;;;14.30;99.90;;;;;;5105322;28;20417;-66
2022/10/19 10:00:56;;;;;;;17.63;4.40;;;14.30;99.90;;;;;;5113595;28;20421;-66
2022/10/19 10:03:26;;;;;;;10.00;4.47;;;14.30;99.90;;;;;;5106318;28;20557;-66
2022/10/19 10:05:54;;;;;;;8.60;3.93;;;14.20;99.90;;;;;;5113497;28;20406;-67
2022/10/19 10:08:25;;;;;;;8.97;5.40;;;14.30;99.90;;;;;;5112951;28;20476;-67
2022/10/19 10:11:03;;;;;;;6.13;3.23;;;14.30;99.90;;;;;;5112735;28;20418;-66
2022/10/19 10:13:29;;;;;;;5.70;3.97;;;14.10;99.90;;;;;;5112692;28;20421;-66
2022/10/19 10:16:03;;;;;;;9.00;4.13;;;14.20;99.90;;;;;;5113227;28;20421;-67
2022/10/19 10:18:29;;;;;;;8.77;4.23;;;14.30;99.90;;;;;;5112256;28;20222;-66
2022/10/19 10:21:02;;;;;;;12.70;4.67;;;14.30;99.90;;;;;;5113013;28;21113;-67
2022/10/19 10:23:35;;;;;;;8.57;4.53;;;14.30;99.90;;;;;;5113034;28;20203;-67
2022/10/19 10:26:02;;;;;;;9.00;4.40;;;14.20;99.90;;;;;;5112469;28;20416;-67
2022/10/19 10:28:29;;;;;;;7.90;4.20;;;14.20;99.90;;;;;;5104623;28;20413;-66
2022/10/19 10:31:13;;;;;;;6.53;3.67;;;14.20;99.90;;;;;;5099049;28;20428;-67
2022/10/19 10:33:39;;;;;;;7.80;3.87;;;14.20;99.90;;;;;;5098285;28;20898;-67
2022/10/19 10:36:09;;;;;;;7.87;3.97;;;14.20;99.90;;;;;;5112233;28;20417;-66
2022/10/19 10:38:43;;;;;;;9.10;4.13;;;14.20;99.90;;;;;;5112070;28;20449;-66
2022/10/19 10:41:19;;;;;;;6.20;3.63;;;14.20;99.90;;;;;;5112028;28;20518;-66
2022/10/19 10:44:05;;;;;;;6.57;3.33;;;14.10;99.90;;;;;;5111633;28;20453;-67
2022/10/19 10:46:40;;;;;;;6.57;2.33;;;14.00;99.90;;;;;;5112588;27;20413;-67
2022/10/19 10:49:14;;;;;;;5.03;3.20;;;14.10;99.90;;;;;;5112868;27;20423;-67
2022/10/19 10:51:46;;;;;;;7.47;4.00;;;14.10;99.90;;;;;;5111850;28;20901;-67
2022/10/19 10:54:23;;;;;;;7.07;3.30;;;14.20;99.90;;;;;;5111149;28;20413;-66
2022/10/19 10:57:17;;;;;;;9.60;2.73;;;14.30;99.90;;;;;;5111461;28;20413;-66
2022/10/19 11:00:02;;;;;;;12.30;3.93;;;14.40;99.90;;;;;;5108713;28;20430;-66
2022/10/19 11:02:40;;;;;;;5.00;3.00;;;14.30;99.90;;;;;;5111471;28;20476;-67
2022/10/19 11:05:26;;;;;;;6.83;2.80;;;14.40;99.90;;;;;;5099365;28;20452;-67
2022/10/19 11:08:34;;;;;;;5.37;3.17;;;14.40;99.90;;;;;;5111541;28;20406;-67
2022/10/19 11:11:21;;;;;;;6.17;3.67;;;14.60;99.90;;;;;;5090243;27;20420;-67
2022/10/19 11:13:58;;;;;;;4.20;1.93;;;14.70;99.90;;;;;;5111051;28;20840;-67
2022/10/19 11:16:31;;;;;;;4.93;2.50;;;14.70;99.90;;;;;;5111525;28;20923;-67
2022/10/19 11:19:11;;;;;;;4.57;2.10;;;14.80;99.90;;;;;;5111009;28;21266;-66
2022/10/19 11:22:10;;;;;;;3.03;1.60;;;14.80;99.90;;;;;;5101310;28;20437;-68
2022/10/19 11:25:07;;;;;;;2.87;1.70;;;14.80;99.90;;;;;;5099349;28;20426;-67
2022/10/19 11:28:09;;;;;;;3.23;2.07;;;14.80;99.90;;;;;;5102354;28;20432;-67
2022/10/19 11:30:50;;;;;;;6.47;2.00;;;14.80;99.90;;;;;;5111730;28;20448;-67
2022/10/19 11:33:37;;;;;;;5.60;2.37;;;14.90;99.90;;;;;;5111675;28;20413;-68
2022/10/19 11:36:27;;;;;;;5.50;2.13;;;14.90;99.90;;;;;;5101238;28;20413;-67
2022/10/19 11:39:02;;;;;;;3.03;2.00;;;15.00;99.90;;;;;;5113885;28;20413;-67
2022/10/19 11:41:44;;;;;;;4.53;1.53;;;15.00;99.90;;;;;;5114253;28;20503;-67
2022/10/19 11:44:25;;;;;;;4.80;1.97;;;15.10;99.90;;;;;;5104263;28;20416;-65
2022/10/19 11:47:29;;;;;;;6.10;1.67;;;15.10;99.90;;;;;;5114980;28;20417;-67
2022/10/19 11:50:14;;;;;;;4.07;2.10;;;15.10;99.90;;;;;;5115582;28;20513;-66
2022/10/19 11:52:55;;;;;;;4.97;2.30;;;15.20;99.90;;;;;;5115400;28;20420;-67
2022/10/19 11:55:45;;;;;;;4.70;2.00;;;15.30;99.90;;;;;;5115621;28;20425;-67
2022/10/19 11:58:23;;;;;;;3.30;1.70;;;15.50;99.90;;;;;;5115181;28;20414;-67
2022/10/19 12:01:01;;;;;;;3.30;1.87;;;15.60;99.90;;;;;;5115709;28;20417;-67
2022/10/19 12:03:45;;;;;;;7.53;1.67;;;15.60;99.90;;;;;;5109749;28;20496;-67
2022/10/19 12:06:33;;;;;;;4.03;2.03;;;15.80;99.90;;;;;;5115560;28;20424;-68
2022/10/19 12:09:15;;;;;;;3.23;1.67;;;15.80;99.90;;;;;;5115097;28;20890;-67
2022/10/19 12:12:18;;;;;;;3.03;1.00;;;15.80;99.90;;;;;;5115051;28;20454;-67
2022/10/19 12:14:48;;;;;;;3.07;1.77;;;15.80;99.90;;;;;;5115089;28;20423;-68
2022/10/19 12:17:25;;;;;;;3.00;1.47;;;15.80;99.90;;;;;;5115233;28;20425;-67
2022/10/19 12:19:57;;;;;;;4.00;2.33;;;15.70;99.90;;;;;;5120571;27;20420;-66
2022/10/19 12:22:27;;;;;;;4.10;2.17;;;15.80;99.90;;;;;;5113786;28;20973;-65
2022/10/19 12:24:56;;;;;;;4.40;1.67;;;15.80;99.90;;;;;;5109847;27;20859;-66
2022/10/19 12:27:32;;;;;;;3.80;1.77;;;15.80;99.90;;;;;;5112691;28;20513;-65
2022/10/19 12:30:04;;;;;;;2.63;1.23;;;15.90;99.90;;;;;;5111386;28;20409;-66
2022/10/19 12:32:36;;;;;;;2.13;1.10;;;15.90;99.90;;;;;;5100054;28;20901;-66
2022/10/19 12:35:26;;;;;;;5.30;1.97;;;16.10;99.90;;;;;;5113275;28;20459;-66
2022/10/19 12:38:17;;;;;;;3.67;1.83;;;16.10;99.90;;;;;;5113171;28;20471;-66
2022/10/19 12:40:58;;;;;;;5.57;2.47;;;16.00;99.90;;;;;;5100813;28;20876;-66
2022/10/19 12:43:32;;;;;;;3.50;1.53;;;16.10;99.90;;;;;;5108163;28;20738;-66
2022/10/19 12:46:27;;;;;;;3.07;1.30;;;15.90;99.90;;;;;;5113393;28;20416;-66
2022/10/19 12:49:29;;;;;;;4.37;2.37;;;15.90;99.90;;;;;;5101210;28;20530;-66
2022/10/19 12:51:59;;;;;;;6.23;2.27;;;15.90;99.90;;;;;;5114027;28;20452;-67
2022/10/19 12:54:34;;;;;;;12.13;2.90;;;16.00;99.90;;;;;;5120659;27;21592;-68
2022/10/19 12:57:02;;;;;;;3.33;1.80;;;16.80;99.90;;;;;;5101100;28;20469;-67
2022/10/19 12:59:36;;;;;;;4.13;1.73;;;15.90;99.90;;;;;;5113669;28;20504;-67
2022/10/19 13:02:05;;;;;;;5.97;2.00;;;16.00;99.90;;;;;;5110716;27;20454;-67
2022/10/19 13:04:36;;;;;;;3.93;1.90;;;15.90;99.90;;;;;;5109911;28;20424;-65